sensor_id;sensor_type;location;lat;lon;timestamp;P1;durP1;ratioP1;P2;durP2;ratioP2
19231;SDS011;9750;48.730;10.294;2024-03-23T00:53:33;4.77;;;4.23;;
19231;SDS011;9750;48.730;10.294;2024-03-23T00:56:00;5.33;;;4.40;;
19231;SDS011;9750;48.730;10.294;2024-03-23T00:58:29;4.73;;;4.23;;
19231;SDS011;9750;48.730;10.294;2024-03-23T01:00:56;4.60;;;4.20;;
19231;SDS011;9750;48.730;10.294;2024-03-23T01:03:23;6.43;;;4.27;;
19231;SDS011;9750;48.730;10.294;2024-03-23T01:05:49;4.40;;;4.00;;
19231;SDS011;9750;48.730;10.294;2024-03-23T01:08:18;5.40;;;4.27;;
19231;SDS011;9750;48.730;10.294;2024-03-23T01:10:53;4.60;;;4.10;;
19231;SDS011;9750;48.730;10.294;2024-03-23T01:13:21;5.03;;;3.67;;
19231;SDS011;9750;48.730;10.294;2024-03-23T01:15:49;5.07;;;3.50;;
19231;SDS011;9750;48.730;10.294;2024-03-23T01:18:17;6.67;;;3.80;;
19231;SDS011;9750;48.730;10.294;2024-03-23T01:20:44;4.23;;;3.47;;
19231;SDS011;9750;48.730;10.294;2024-03-23T01:23:11;4.83;;;3.50;;
19231;SDS011;9750;48.730;10.294;2024-03-23T01:25:37;7.77;;;3.67;;
19231;SDS011;9750;48.730;10.294;2024-03-23T01:28:05;4.43;;;3.97;;
19231;SDS011;9750;48.730;10.294;2024-03-23T01:30:32;5.93;;;3.53;;
19231;SDS011;9750;48.730;10.294;2024-03-23T01:33:01;5.63;;;3.60;;
19231;SDS011;9750;48.730;10.294;2024-03-23T01:38:50;5.33;;;3.03;;
19231;SDS011;9750;48.730;10.294;2024-03-23T01:41:18;4.40;;;3.17;;
19231;SDS011;9750;48.730;10.294;2024-03-23T01:43:44;6.53;;;3.40;;
19231;SDS011;9750;48.730;10.294;2024-03-23T01:49:35;4.37;;;3.00;;
19231;SDS011;9750;48.730;10.294;2024-03-23T01:52:03;5.27;;;3.33;;
19231;SDS011;9750;48.730;10.294;2024-03-23T01:54:29;8.23;;;3.60;;
19231;SDS011;9750;48.730;10.294;2024-03-23T01:56:57;4.13;;;2.73;;
19231;SDS011;9750;48.730;10.294;2024-03-23T01:59:25;4.07;;;3.10;;
19231;SDS011;9750;48.730;10.294;2024-03-23T02:01:52;4.63;;;3.10;;
19231;SDS011;9750;48.730;10.294;2024-03-23T02:04:18;3.10;;;2.80;;
19231;SDS011;9750;48.730;10.294;2024-03-23T02:06:47;4.03;;;3.17;;
19231;SDS011;9750;48.730;10.294;2024-03-23T02:09:13;5.17;;;3.20;;
19231;SDS011;9750;48.730;10.294;2024-03-23T02:11:41;4.20;;;2.93;;
19231;SDS011;9750;48.730;10.294;2024-03-23T02:14:07;6.77;;;3.00;;
19231;SDS011;9750;48.730;10.294;2024-03-23T02:16:34;6.33;;;3.00;;
19231;SDS011;9750;48.730;10.294;2024-03-23T02:19:00;4.10;;;2.87;;
19231;SDS011;9750;48.730;10.294;2024-03-23T02:21:28;3.73;;;3.00;;
19231;SDS011;9750;48.730;10.294;2024-03-23T02:23:58;3.47;;;2.97;;
19231;SDS011;9750;48.730;10.294;2024-03-23T02:26:25;3.77;;;3.10;;
19231;SDS011;9750;48.730;10.294;2024-03-23T02:28:52;5.37;;;3.20;;
19231;SDS011;9750;48.730;10.294;2024-03-23T02:31:19;3.77;;;3.10;;
19231;SDS011;9750;48.730;10.294;2024-03-23T02:33:45;5.20;;;3.40;;
19231;SDS011;9750;48.730;10.294;2024-03-23T02:36:12;3.63;;;2.87;;
19231;SDS011;9750;48.730;10.294;2024-03-23T02:38:38;4.43;;;3.00;;
19231;SDS011;9750;48.730;10.294;2024-03-23T02:41:07;4.50;;;3.13;;
19231;SDS011;9750;48.730;10.294;2024-03-23T02:43:33;5.80;;;3.30;;
19231;SDS011;9750;48.730;10.294;2024-03-23T02:46:01;6.00;;;3.30;;
19231;SDS011;9750;48.730;10.294;2024-03-23T02:48:28;4.93;;;3.17;;
19231;SDS011;9750;48.730;10.294;2024-03-23T02:50:55;3.93;;;2.83;;
19231;SDS011;9750;48.730;10.294;2024-03-23T02:53:21;3.30;;;3.00;;
19231;SDS011;9750;48.730;10.294;2024-03-23T02:55:48;3.57;;;3.10;;
19231;SDS011;9750;48.730;10.294;2024-03-23T02:58:16;7.87;;;3.20;;
19231;SDS011;9750;48.730;10.294;2024-03-23T03:00:43;3.40;;;3.03;;
19231;SDS011;9750;48.730;10.294;2024-03-23T03:03:10;4.40;;;3.30;;
19231;SDS011;9750;48.730;10.294;2024-03-23T03:05:37;3.97;;;3.53;;
19231;SDS011;9750;48.730;10.294;2024-03-23T03:08:03;3.67;;;3.00;;
19231;SDS011;9750;48.730;10.294;2024-03-23T03:10:31;3.70;;;3.03;;
19231;SDS011;9750;48.730;10.294;2024-03-23T03:13:00;3.63;;;3.27;;
19231;SDS011;9750;48.730;10.294;2024-03-23T03:15:29;4.27;;;3.40;;
19231;SDS011;9750;48.730;10.294;2024-03-23T03:17:55;4.13;;;2.73;;
19231;SDS011;9750;48.730;10.294;2024-03-23T03:20:22;4.93;;;3.13;;
19231;SDS011;9750;48.730;10.294;2024-03-23T03:22:49;4.23;;;3.73;;
19231;SDS011;9750;48.730;10.294;2024-03-23T03:25:18;4.47;;;3.23;;
19231;SDS011;9750;48.730;10.294;2024-03-23T03:27:44;4.80;;;3.27;;
19231;SDS011;9750;48.730;10.294;2024-03-23T03:30:12;3.20;;;2.90;;
19231;SDS011;9750;48.730;10.294;2024-03-23T03:32:40;3.67;;;3.37;;
19231;SDS011;9750;48.730;10.294;2024-03-23T03:35:07;4.23;;;3.40;;
19231;SDS011;9750;48.730;10.294;2024-03-23T03:37:33;5.03;;;3.43;;
19231;SDS011;9750;48.730;10.294;2024-03-23T03:40:01;4.07;;;3.70;;
19231;SDS011;9750;48.730;10.294;2024-03-23T03:42:27;3.90;;;3.50;;
19231;SDS011;9750;48.730;10.294;2024-03-23T03:44:54;6.43;;;3.87;;
19231;SDS011;9750;48.730;10.294;2024-03-23T03:47:20;4.07;;;3.40;;
19231;SDS011;9750;48.730;10.294;2024-03-23T03:49:49;3.50;;;3.03;;
19231;SDS011;9750;48.730;10.294;2024-03-23T03:52:15;4.70;;;3.40;;
19231;SDS011;9750;48.730;10.294;2024-03-23T03:54:42;5.10;;;3.37;;
19231;SDS011;9750;48.730;10.294;2024-03-23T03:57:08;4.37;;;3.43;;
19231;SDS011;9750;48.730;10.294;2024-03-23T03:59:36;4.57;;;3.77;;
19231;SDS011;9750;48.730;10.294;2024-03-23T04:02:02;3.80;;;3.20;;
19231;SDS011;9750;48.730;10.294;2024-03-23T04:04:30;4.23;;;3.70;;
19231;SDS011;9750;48.730;10.294;2024-03-23T04:07:01;3.90;;;3.50;;
19231;SDS011;9750;48.730;10.294;2024-03-23T04:09:30;4.43;;;3.63;;
19231;SDS011;9750;48.730;10.294;2024-03-23T04:11:56;4.53;;;3.77;;
19231;SDS011;9750;48.730;10.294;2024-03-23T04:14:23;5.60;;;3.77;;
19231;SDS011;9750;48.730;10.294;2024-03-23T04:16:50;4.77;;;3.80;;
19231;SDS011;9750;48.730;10.294;2024-03-23T04:19:17;4.10;;;3.70;;
19231;SDS011;9750;48.730;10.294;2024-03-23T04:21:43;4.80;;;3.63;;
19231;SDS011;9750;48.730;10.294;2024-03-23T04:24:12;4.83;;;3.90;;
19231;SDS011;9750;48.730;10.294;2024-03-23T04:26:40;4.53;;;3.60;;
19231;SDS011;9750;48.730;10.294;2024-03-23T04:29:08;3.87;;;3.47;;
19231;SDS011;9750;48.730;10.294;2024-03-23T04:31:34;4.27;;;3.77;;
19231;SDS011;9750;48.730;10.294;2024-03-23T04:34:01;3.77;;;3.47;;
19231;SDS011;9750;48.730;10.294;2024-03-23T04:36:28;5.20;;;3.40;;
19231;SDS011;9750;48.730;10.294;2024-03-23T04:38:55;5.00;;;3.60;;
19231;SDS011;9750;48.730;10.294;2024-03-23T04:41:24;4.47;;;4.07;;
19231;SDS011;9750;48.730;10.294;2024-03-23T04:43:52;5.33;;;3.87;;
19231;SDS011;9750;48.730;10.294;2024-03-23T04:46:19;4.37;;;3.90;;
19231;SDS011;9750;48.730;10.294;2024-03-23T04:48:46;4.43;;;3.60;;
19231;SDS011;9750;48.730;10.294;2024-03-23T04:51:19;4.57;;;4.17;;
19231;SDS011;9750;48.730;10.294;2024-03-23T04:53:47;4.07;;;3.70;;
19231;SDS011;9750;48.730;10.294;2024-03-23T04:56:22;4.90;;;3.60;;
19231;SDS011;9750;48.730;10.294;2024-03-23T04:58:50;4.07;;;3.67;;
19231;SDS011;9750;48.730;10.294;2024-03-23T05:01:18;5.60;;;3.73;;
19231;SDS011;9750;48.730;10.294;2024-03-23T05:03:44;5.30;;;4.03;;
19231;SDS011;9750;48.730;10.294;2024-03-23T05:09:09;4.97;;;4.20;;
19231;SDS011;9750;48.730;10.294;2024-03-23T05:11:38;5.13;;;4.10;;
19231;SDS011;9750;48.730;10.294;2024-03-23T05:14:04;7.00;;;4.90;;
19231;SDS011;9750;48.730;10.294;2024-03-23T05:16:32;6.33;;;4.47;;
19231;SDS011;9750;48.730;10.294;2024-03-23T05:18:58;4.63;;;4.23;;
19231;SDS011;9750;48.730;10.294;2024-03-23T05:21:26;5.13;;;4.63;;
19231;SDS011;9750;48.730;10.294;2024-03-23T05:23:53;6.83;;;4.80;;
19231;SDS011;9750;48.730;10.294;2024-03-23T05:26:21;6.07;;;4.47;;
19231;SDS011;9750;48.730;10.294;2024-03-23T05:28:49;5.63;;;5.13;;
19231;SDS011;9750;48.730;10.294;2024-03-23T05:31:22;5.40;;;4.90;;
19231;SDS011;9750;48.730;10.294;2024-03-23T05:33:49;6.90;;;4.67;;
19231;SDS011;9750;48.730;10.294;2024-03-23T05:36:16;6.03;;;4.80;;
19231;SDS011;9750;48.730;10.294;2024-03-23T05:38:43;8.50;;;5.63;;
19231;SDS011;9750;48.730;10.294;2024-03-23T05:41:10;7.20;;;5.20;;
19231;SDS011;9750;48.730;10.294;2024-03-23T05:43:36;5.30;;;4.80;;
19231;SDS011;9750;48.730;10.294;2024-03-23T05:46:05;6.10;;;4.87;;
19231;SDS011;9750;48.730;10.294;2024-03-23T05:48:32;5.27;;;4.77;;
19231;SDS011;9750;48.730;10.294;2024-03-23T05:51:00;6.40;;;5.80;;
19231;SDS011;9750;48.730;10.294;2024-03-23T05:53:26;6.60;;;5.80;;
19231;SDS011;9750;48.730;10.294;2024-03-23T05:56:00;6.87;;;5.23;;
19231;SDS011;9750;48.730;10.294;2024-03-23T05:58:29;9.80;;;8.20;;
19231;SDS011;9750;48.730;10.294;2024-03-23T06:00:57;28.60;;;21.27;;
19231;SDS011;9750;48.730;10.294;2024-03-23T06:03:25;10.60;;;7.83;;
19231;SDS011;9750;48.730;10.294;2024-03-23T06:05:53;5.93;;;5.07;;
19231;SDS011;9750;48.730;10.294;2024-03-23T06:08:19;6.53;;;5.83;;
19231;SDS011;9750;48.730;10.294;2024-03-23T06:10:47;7.37;;;6.67;;
19231;SDS011;9750;48.730;10.294;2024-03-23T06:13:13;8.97;;;7.13;;
19231;SDS011;9750;48.730;10.294;2024-03-23T06:19:04;13.83;;;10.60;;
19231;SDS011;9750;48.730;10.294;2024-03-23T06:21:32;11.87;;;10.20;;
19231;SDS011;9750;48.730;10.294;2024-03-23T06:23:58;13.13;;;10.80;;
19231;SDS011;9750;48.730;10.294;2024-03-23T06:26:25;12.40;;;11.10;;
19231;SDS011;9750;48.730;10.294;2024-03-23T06:28:51;15.67;;;11.90;;
19231;SDS011;9750;48.730;10.294;2024-03-23T06:31:19;20.40;;;15.50;;
19231;SDS011;9750;48.730;10.294;2024-03-23T06:33:45;21.80;;;15.97;;
19231;SDS011;9750;48.730;10.294;2024-03-23T06:36:13;28.50;;;18.67;;
19231;SDS011;9750;48.730;10.294;2024-03-23T06:38:40;25.07;;;17.33;;
19231;SDS011;9750;48.730;10.294;2024-03-23T06:41:07;24.43;;;15.20;;
19231;SDS011;9750;48.730;10.294;2024-03-23T06:43:34;16.97;;;13.17;;
19231;SDS011;9750;48.730;10.294;2024-03-23T06:46:01;17.00;;;13.03;;
19231;SDS011;9750;48.730;10.294;2024-03-23T06:48:29;15.40;;;11.93;;
19231;SDS011;9750;48.730;10.294;2024-03-23T06:50:56;15.13;;;11.67;;
19231;SDS011;9750;48.730;10.294;2024-03-23T06:53:24;13.53;;;10.83;;
19231;SDS011;9750;48.730;10.294;2024-03-23T06:55:52;10.70;;;8.23;;
19231;SDS011;9750;48.730;10.294;2024-03-23T06:58:19;11.10;;;8.17;;
19231;SDS011;9750;48.730;10.294;2024-03-23T07:00:47;9.87;;;6.97;;
19231;SDS011;9750;48.730;10.294;2024-03-23T07:03:14;6.10;;;5.07;;
19231;SDS011;9750;48.730;10.294;2024-03-23T07:05:41;6.53;;;5.80;;
19231;SDS011;9750;48.730;10.294;2024-03-23T07:08:07;7.47;;;5.40;;
19231;SDS011;9750;48.730;10.294;2024-03-23T07:10:37;7.97;;;6.10;;
19231;SDS011;9750;48.730;10.294;2024-03-23T07:13:05;8.27;;;5.30;;
19231;SDS011;9750;48.730;10.294;2024-03-23T07:18:53;13.97;;;6.27;;
19231;SDS011;9750;48.730;10.294;2024-03-23T07:21:21;6.60;;;5.33;;
19231;SDS011;9750;48.730;10.294;2024-03-23T07:23:47;5.90;;;4.80;;
19231;SDS011;9750;48.730;10.294;2024-03-23T07:26:16;5.43;;;4.70;;
19231;SDS011;9750;48.730;10.294;2024-03-23T07:28:43;6.70;;;4.30;;
19231;SDS011;9750;48.730;10.294;2024-03-23T07:31:11;5.63;;;4.47;;
19231;SDS011;9750;48.730;10.294;2024-03-23T07:33:41;5.80;;;4.70;;
19231;SDS011;9750;48.730;10.294;2024-03-23T07:36:09;5.93;;;4.00;;
19231;SDS011;9750;48.730;10.294;2024-03-23T07:38:36;5.90;;;3.60;;
19231;SDS011;9750;48.730;10.294;2024-03-23T07:41:04;3.90;;;3.20;;
19231;SDS011;9750;48.730;10.294;2024-03-23T07:43:32;4.80;;;3.50;;
19231;SDS011;9750;48.730;10.294;2024-03-23T07:49:21;4.50;;;3.47;;
19231;SDS011;9750;48.730;10.294;2024-03-23T07:51:48;4.07;;;3.00;;
19231;SDS011;9750;48.730;10.294;2024-03-23T07:54:14;3.40;;;2.90;;
19231;SDS011;9750;48.730;10.294;2024-03-23T07:56:42;2.93;;;2.63;;
19231;SDS011;9750;48.730;10.294;2024-03-23T07:59:09;3.97;;;2.97;;
19231;SDS011;9750;48.730;10.294;2024-03-23T08:01:37;5.00;;;3.40;;
19231;SDS011;9750;48.730;10.294;2024-03-23T08:04:03;3.37;;;3.07;;
19231;SDS011;9750;48.730;10.294;2024-03-23T08:06:31;3.70;;;3.03;;
19231;SDS011;9750;48.730;10.294;2024-03-23T08:08:57;3.13;;;2.40;;
19231;SDS011;9750;48.730;10.294;2024-03-23T08:11:27;2.50;;;2.30;;
19231;SDS011;9750;48.730;10.294;2024-03-23T08:13:55;2.60;;;2.20;;
19231;SDS011;9750;48.730;10.294;2024-03-23T08:16:24;2.13;;;1.93;;
19231;SDS011;9750;48.730;10.294;2024-03-23T08:18:51;2.43;;;1.73;;
19231;SDS011;9750;48.730;10.294;2024-03-23T08:21:18;1.80;;;1.70;;
19231;SDS011;9750;48.730;10.294;2024-03-23T08:23:44;2.17;;;1.80;;
19231;SDS011;9750;48.730;10.294;2024-03-23T08:26:12;1.80;;;1.70;;
19231;SDS011;9750;48.730;10.294;2024-03-23T08:28:40;2.63;;;1.90;;
19231;SDS011;9750;48.730;10.294;2024-03-23T08:31:08;1.83;;;1.60;;
19231;SDS011;9750;48.730;10.294;2024-03-23T08:33:37;2.07;;;1.87;;
19231;SDS011;9750;48.730;10.294;2024-03-23T08:36:06;1.90;;;1.80;;
19231;SDS011;9750;48.730;10.294;2024-03-23T08:38:33;2.87;;;2.27;;
19231;SDS011;9750;48.730;10.294;2024-03-23T08:41:01;2.07;;;1.87;;
19231;SDS011;9750;48.730;10.294;2024-03-23T08:43:28;2.00;;;1.60;;
19231;SDS011;9750;48.730;10.294;2024-03-23T08:46:03;1.97;;;1.57;;
19231;SDS011;9750;48.730;10.294;2024-03-23T08:48:30;1.80;;;1.70;;
19231;SDS011;9750;48.730;10.294;2024-03-23T08:51:01;2.53;;;1.80;;
19231;SDS011;9750;48.730;10.294;2024-03-23T08:53:28;2.00;;;1.80;;
19231;SDS011;9750;48.730;10.294;2024-03-23T08:55:55;1.70;;;1.60;;
19231;SDS011;9750;48.730;10.294;2024-03-23T08:58:23;1.80;;;1.70;;
19231;SDS011;9750;48.730;10.294;2024-03-23T09:00:51;1.93;;;1.77;;
19231;SDS011;9750;48.730;10.294;2024-03-23T09:03:17;2.03;;;1.93;;
19231;SDS011;9750;48.730;10.294;2024-03-23T09:05:45;1.77;;;1.67;;
19231;SDS011;9750;48.730;10.294;2024-03-23T09:08:12;2.40;;;2.20;;
19231;SDS011;9750;48.730;10.294;2024-03-23T09:10:40;2.27;;;2.10;;
19231;SDS011;9750;48.730;10.294;2024-03-23T09:13:06;3.23;;;2.93;;
19231;SDS011;9750;48.730;10.294;2024-03-23T09:15:34;1.70;;;1.60;;
19231;SDS011;9750;48.730;10.294;2024-03-23T09:18:01;3.10;;;2.80;;
19231;SDS011;9750;48.730;10.294;2024-03-23T09:20:29;1.60;;;1.50;;
19231;SDS011;9750;48.730;10.294;2024-03-23T09:22:58;1.60;;;1.50;;
19231;SDS011;9750;48.730;10.294;2024-03-23T09:25:27;1.67;;;1.57;;
19231;SDS011;9750;48.730;10.294;2024-03-23T09:27:53;1.70;;;1.60;;
19231;SDS011;9750;48.730;10.294;2024-03-23T09:30:20;1.40;;;1.30;;
19231;SDS011;9750;48.730;10.294;2024-03-23T09:32:47;1.83;;;1.60;;
19231;SDS011;9750;48.730;10.294;2024-03-23T09:35:14;1.63;;;1.53;;
19231;SDS011;9750;48.730;10.294;2024-03-23T09:37:40;1.20;;;1.10;;
19231;SDS011;9750;48.730;10.294;2024-03-23T09:40:09;1.13;;;1.03;;
19231;SDS011;9750;48.730;10.294;2024-03-23T09:42:38;1.30;;;1.20;;
19231;SDS011;9750;48.730;10.294;2024-03-23T09:48:22;1.50;;;1.40;;
19231;SDS011;9750;48.730;10.294;2024-03-23T09:50:50;1.50;;;1.40;;
19231;SDS011;9750;48.730;10.294;2024-03-23T09:53:16;1.50;;;1.40;;
19231;SDS011;9750;48.730;10.294;2024-03-23T09:55:50;1.70;;;1.60;;
19231;SDS011;9750;48.730;10.294;2024-03-23T09:58:18;2.13;;;1.83;;
19231;SDS011;9750;48.730;10.294;2024-03-23T10:00:46;2.40;;;2.20;;
19231;SDS011;9750;48.730;10.294;2024-03-23T10:03:12;2.10;;;1.90;;
19231;SDS011;9750;48.730;10.294;2024-03-23T10:05:39;2.30;;;2.10;;
19231;SDS011;9750;48.730;10.294;2024-03-23T10:08:17;4.23;;;2.40;;
19231;SDS011;9750;48.730;10.294;2024-03-23T10:10:44;2.90;;;2.10;;
19231;SDS011;9750;48.730;10.294;2024-03-23T10:13:25;2.67;;;2.30;;
19231;SDS011;9750;48.730;10.294;2024-03-23T10:15:55;3.13;;;2.10;;
19231;SDS011;9750;48.730;10.294;2024-03-23T10:18:24;2.30;;;2.10;;
19231;SDS011;9750;48.730;10.294;2024-03-23T10:21:06;2.50;;;2.30;;
19231;SDS011;9750;48.730;10.294;2024-03-23T10:23:34;4.20;;;2.93;;
19231;SDS011;9750;48.730;10.294;2024-03-23T10:26:12;3.53;;;3.10;;
19231;SDS011;9750;48.730;10.294;2024-03-23T10:28:57;5.67;;;3.60;;
19231;SDS011;9750;48.730;10.294;2024-03-23T10:31:26;8.07;;;4.30;;
19231;SDS011;9750;48.730;10.294;2024-03-23T10:33:54;6.30;;;4.13;;
19231;SDS011;9750;48.730;10.294;2024-03-23T10:36:20;6.97;;;4.20;;
19231;SDS011;9750;48.730;10.294;2024-03-23T10:38:49;6.23;;;4.33;;
19231;SDS011;9750;48.730;10.294;2024-03-23T10:41:16;5.73;;;4.27;;
19231;SDS011;9750;48.730;10.294;2024-03-23T10:43:45;6.10;;;3.90;;
19231;SDS011;9750;48.730;10.294;2024-03-23T10:46:13;5.63;;;4.20;;
19231;SDS011;9750;48.730;10.294;2024-03-23T10:48:40;8.13;;;4.43;;
19231;SDS011;9750;48.730;10.294;2024-03-23T10:51:08;7.27;;;4.37;;
19231;SDS011;9750;48.730;10.294;2024-03-23T10:53:36;6.13;;;4.30;;
19231;SDS011;9750;48.730;10.294;2024-03-23T10:56:03;5.60;;;4.20;;
19231;SDS011;9750;48.730;10.294;2024-03-23T10:58:32;6.20;;;4.20;;
19231;SDS011;9750;48.730;10.294;2024-03-23T11:01:02;5.80;;;3.97;;
19231;SDS011;9750;48.730;10.294;2024-03-23T11:03:35;8.60;;;3.90;;
19231;SDS011;9750;48.730;10.294;2024-03-23T11:06:02;6.67;;;4.17;;
19231;SDS011;9750;48.730;10.294;2024-03-23T11:08:31;5.03;;;3.60;;
19231;SDS011;9750;48.730;10.294;2024-03-23T11:11:19;6.27;;;4.33;;
19231;SDS011;9750;48.730;10.294;2024-03-23T11:13:48;7.00;;;4.20;;
19231;SDS011;9750;48.730;10.294;2024-03-23T11:16:15;6.00;;;4.27;;
19231;SDS011;9750;48.730;10.294;2024-03-23T11:18:45;7.27;;;4.13;;
19231;SDS011;9750;48.730;10.294;2024-03-23T11:21:11;7.70;;;4.53;;
19231;SDS011;9750;48.730;10.294;2024-03-23T11:24:17;8.00;;;4.27;;
19231;SDS011;9750;48.730;10.294;2024-03-23T11:26:44;7.40;;;3.93;;
19231;SDS011;9750;48.730;10.294;2024-03-23T11:29:12;6.80;;;3.80;;
19231;SDS011;9750;48.730;10.294;2024-03-23T11:31:44;9.37;;;3.80;;
19231;SDS011;9750;48.730;10.294;2024-03-23T11:34:14;7.60;;;4.30;;
19231;SDS011;9750;48.730;10.294;2024-03-23T11:36:41;6.27;;;3.70;;
19231;SDS011;9750;48.730;10.294;2024-03-23T11:39:12;10.17;;;3.63;;
19231;SDS011;9750;48.730;10.294;2024-03-23T11:41:45;8.87;;;3.90;;
19231;SDS011;9750;48.730;10.294;2024-03-23T11:44:16;7.77;;;3.70;;
19231;SDS011;9750;48.730;10.294;2024-03-23T11:46:43;5.87;;;3.60;;
19231;SDS011;9750;48.730;10.294;2024-03-23T11:49:22;6.97;;;3.87;;
19231;SDS011;9750;48.730;10.294;2024-03-23T11:51:49;8.33;;;3.70;;
19231;SDS011;9750;48.730;10.294;2024-03-23T11:54:20;5.30;;;3.10;;
19231;SDS011;9750;48.730;10.294;2024-03-23T11:56:56;5.57;;;3.50;;
19231;SDS011;9750;48.730;10.294;2024-03-23T11:59:30;7.93;;;3.50;;
19231;SDS011;9750;48.730;10.294;2024-03-23T12:01:57;7.00;;;3.40;;
19231;SDS011;9750;48.730;10.294;2024-03-23T12:04:27;4.53;;;3.13;;
19231;SDS011;9750;48.730;10.294;2024-03-23T12:07:10;4.80;;;3.90;;
19231;SDS011;9750;48.730;10.294;2024-03-23T12:09:40;5.60;;;4.00;;
19231;SDS011;9750;48.730;10.294;2024-03-23T12:12:08;5.13;;;4.27;;
19231;SDS011;9750;48.730;10.294;2024-03-23T12:14:37;7.77;;;5.30;;
19231;SDS011;9750;48.730;10.294;2024-03-23T12:17:10;8.40;;;5.30;;
19231;SDS011;9750;48.730;10.294;2024-03-23T12:19:40;8.27;;;6.00;;
19231;SDS011;9750;48.730;10.294;2024-03-23T12:22:06;10.87;;;6.27;;
19231;SDS011;9750;48.730;10.294;2024-03-23T12:24:34;7.70;;;5.70;;
19231;SDS011;9750;48.730;10.294;2024-03-23T12:27:01;7.77;;;5.00;;
19231;SDS011;9750;48.730;10.294;2024-03-23T12:29:29;5.40;;;4.27;;
19231;SDS011;9750;48.730;10.294;2024-03-23T12:31:58;7.27;;;4.17;;
19231;SDS011;9750;48.730;10.294;2024-03-23T12:34:26;6.87;;;4.43;;
19231;SDS011;9750;48.730;10.294;2024-03-23T12:36:54;5.73;;;4.00;;
19231;SDS011;9750;48.730;10.294;2024-03-23T12:39:21;6.80;;;3.77;;
19231;SDS011;9750;48.730;10.294;2024-03-23T12:41:47;5.23;;;3.20;;
19231;SDS011;9750;48.730;10.294;2024-03-23T12:44:15;4.37;;;2.90;;
19231;SDS011;9750;48.730;10.294;2024-03-23T12:46:41;5.57;;;3.10;;
19231;SDS011;9750;48.730;10.294;2024-03-23T12:49:09;4.83;;;2.90;;
19231;SDS011;9750;48.730;10.294;2024-03-23T12:51:35;4.57;;;2.60;;
19231;SDS011;9750;48.730;10.294;2024-03-23T12:54:04;5.50;;;2.70;;
19231;SDS011;9750;48.730;10.294;2024-03-23T12:56:30;3.90;;;2.90;;
19231;SDS011;9750;48.730;10.294;2024-03-23T12:58:58;2.97;;;2.40;;
19231;SDS011;9750;48.730;10.294;2024-03-23T13:01:24;5.30;;;2.80;;
19231;SDS011;9750;48.730;10.294;2024-03-23T13:03:52;4.37;;;2.40;;
19231;SDS011;9750;48.730;10.294;2024-03-23T13:09:41;6.93;;;2.70;;
19231;SDS011;9750;48.730;10.294;2024-03-23T13:12:08;5.13;;;2.40;;
19231;SDS011;9750;48.730;10.294;2024-03-23T13:14:35;4.00;;;2.27;;
19231;SDS011;9750;48.730;10.294;2024-03-23T13:17:02;5.30;;;2.47;;
19231;SDS011;9750;48.730;10.294;2024-03-23T13:19:29;6.17;;;2.30;;
19231;SDS011;9750;48.730;10.294;2024-03-23T13:21:57;6.80;;;2.60;;
19231;SDS011;9750;48.730;10.294;2024-03-23T13:24:23;5.90;;;2.47;;
19231;SDS011;9750;48.730;10.294;2024-03-23T13:26:52;5.80;;;2.67;;
19231;SDS011;9750;48.730;10.294;2024-03-23T13:29:20;4.50;;;2.47;;
19231;SDS011;9750;48.730;10.294;2024-03-23T13:31:49;5.13;;;2.90;;
19231;SDS011;9750;48.730;10.294;2024-03-23T13:34:16;6.73;;;2.70;;
19231;SDS011;9750;48.730;10.294;2024-03-23T13:36:44;4.77;;;2.57;;
19231;SDS011;9750;48.730;10.294;2024-03-23T13:39:11;4.40;;;2.50;;
19231;SDS011;9750;48.730;10.294;2024-03-23T13:41:40;6.53;;;3.10;;
19231;SDS011;9750;48.730;10.294;2024-03-23T13:44:09;6.23;;;2.60;;
19231;SDS011;9750;48.730;10.294;2024-03-23T13:46:37;6.03;;;2.80;;
19231;SDS011;9750;48.730;10.294;2024-03-23T13:49:03;5.37;;;2.63;;
19231;SDS011;9750;48.730;10.294;2024-03-23T13:51:31;4.77;;;2.50;;
19231;SDS011;9750;48.730;10.294;2024-03-23T13:53:57;5.87;;;3.00;;
19231;SDS011;9750;48.730;10.294;2024-03-23T13:56:26;6.30;;;2.77;;
19231;SDS011;9750;48.730;10.294;2024-03-23T13:58:53;6.87;;;3.50;;
19231;SDS011;9750;48.730;10.294;2024-03-23T14:01:22;4.27;;;2.47;;
19231;SDS011;9750;48.730;10.294;2024-03-23T14:03:49;5.37;;;2.70;;
19231;SDS011;9750;48.730;10.294;2024-03-23T14:06:31;6.97;;;2.80;;
19231;SDS011;9750;48.730;10.294;2024-03-23T14:08:57;5.77;;;3.00;;
19231;SDS011;9750;48.730;10.294;2024-03-23T14:11:24;4.50;;;2.80;;
19231;SDS011;9750;48.730;10.294;2024-03-23T14:13:51;6.00;;;2.90;;
19231;SDS011;9750;48.730;10.294;2024-03-23T14:16:19;3.97;;;2.47;;
19231;SDS011;9750;48.730;10.294;2024-03-23T14:18:47;4.60;;;2.60;;
19231;SDS011;9750;48.730;10.294;2024-03-23T14:21:14;5.57;;;3.07;;
19231;SDS011;9750;48.730;10.294;2024-03-23T14:23:40;4.50;;;2.27;;
19231;SDS011;9750;48.730;10.294;2024-03-23T14:29:30;5.93;;;2.73;;
19231;SDS011;9750;48.730;10.294;2024-03-23T14:31:59;6.50;;;2.67;;
19231;SDS011;9750;48.730;10.294;2024-03-23T14:34:27;5.17;;;2.80;;
19231;SDS011;9750;48.730;10.294;2024-03-23T14:36:54;5.90;;;2.87;;
19231;SDS011;9750;48.730;10.294;2024-03-23T14:39:22;6.17;;;2.80;;
19231;SDS011;9750;48.730;10.294;2024-03-23T14:41:49;6.60;;;2.90;;
19231;SDS011;9750;48.730;10.294;2024-03-23T14:44:16;4.33;;;2.10;;
19231;SDS011;9750;48.730;10.294;2024-03-23T14:46:44;6.27;;;3.10;;
19231;SDS011;9750;48.730;10.294;2024-03-23T14:49:14;8.67;;;2.80;;
19231;SDS011;9750;48.730;10.294;2024-03-23T14:51:44;6.40;;;3.00;;
19231;SDS011;9750;48.730;10.294;2024-03-23T14:54:11;7.33;;;2.83;;
19231;SDS011;9750;48.730;10.294;2024-03-23T14:56:39;7.70;;;3.20;;
19231;SDS011;9750;48.730;10.294;2024-03-23T14:59:05;5.17;;;2.40;;
19231;SDS011;9750;48.730;10.294;2024-03-23T15:01:33;3.57;;;2.40;;
19231;SDS011;9750;48.730;10.294;2024-03-23T15:03:59;5.63;;;2.50;;
19231;SDS011;9750;48.730;10.294;2024-03-23T15:06:26;7.83;;;2.50;;
19231;SDS011;9750;48.730;10.294;2024-03-23T15:08:54;4.33;;;2.10;;
19231;SDS011;9750;48.730;10.294;2024-03-23T15:11:21;6.57;;;2.20;;
19231;SDS011;9750;48.730;10.294;2024-03-23T15:13:49;3.57;;;2.20;;
19231;SDS011;9750;48.730;10.294;2024-03-23T15:16:17;6.33;;;2.30;;
19231;SDS011;9750;48.730;10.294;2024-03-23T15:18:45;4.97;;;2.17;;
19231;SDS011;9750;48.730;10.294;2024-03-23T15:21:12;3.87;;;2.00;;
19231;SDS011;9750;48.730;10.294;2024-03-23T15:23:44;3.93;;;1.80;;
19231;SDS011;9750;48.730;10.294;2024-03-23T15:26:13;3.43;;;2.00;;
19231;SDS011;9750;48.730;10.294;2024-03-23T15:28:41;2.73;;;1.90;;
19231;SDS011;9750;48.730;10.294;2024-03-23T15:31:28;3.83;;;2.23;;
19231;SDS011;9750;48.730;10.294;2024-03-23T15:33:55;5.70;;;2.33;;
19231;SDS011;9750;48.730;10.294;2024-03-23T15:36:22;4.37;;;2.07;;
19231;SDS011;9750;48.730;10.294;2024-03-23T15:38:48;7.97;;;5.30;;
19231;SDS011;9750;48.730;10.294;2024-03-23T15:41:17;4.30;;;2.53;;
19231;SDS011;9750;48.730;10.294;2024-03-23T15:43:43;3.67;;;2.47;;
19231;SDS011;9750;48.730;10.294;2024-03-23T15:46:10;3.43;;;2.20;;
19231;SDS011;9750;48.730;10.294;2024-03-23T15:48:37;3.03;;;1.80;;
19231;SDS011;9750;48.730;10.294;2024-03-23T15:51:04;4.53;;;1.93;;
19231;SDS011;9750;48.730;10.294;2024-03-23T15:53:30;1.97;;;1.40;;
19231;SDS011;9750;48.730;10.294;2024-03-23T15:55:58;1.97;;;1.50;;
19231;SDS011;9750;48.730;10.294;2024-03-23T15:58:27;3.73;;;1.90;;
19231;SDS011;9750;48.730;10.294;2024-03-23T16:00:55;3.57;;;1.60;;
19231;SDS011;9750;48.730;10.294;2024-03-23T16:03:21;2.50;;;1.70;;
19231;SDS011;9750;48.730;10.294;2024-03-23T16:05:51;2.10;;;1.70;;
19231;SDS011;9750;48.730;10.294;2024-03-23T16:08:18;3.30;;;1.90;;
19231;SDS011;9750;48.730;10.294;2024-03-23T16:10:45;3.30;;;1.63;;
19231;SDS011;9750;48.730;10.294;2024-03-23T16:13:11;4.13;;;1.90;;